Time;durP1;ratioP1;P1;durP2;ratioP2;P2;SDS_P1;SDS_P2;PMS_P1;PMS_P2;Temp;Humidity;BMP_temperature;BMP_pressure;BME280_temperature;BME280_humidity;BME280_pressure;Samples;Min_cycle;Max_cycle;Signal;HPM_P1;HPM_P2
2022/08/10 00:01:50;;;;;;;;;;;;;;;26.81;56.97;100439.41;7313548;19;129989;-33
2022/08/10 00:04:16;;;;;;;;;;;;;;;26.82;57.20;100436.59;7315954;19;129117;-36
2022/08/10 00:06:41;;;;;;;;;;;;;;;26.82;57.41;100436.59;7315186;19;129217;-37
2022/08/10 00:09:06;;;;;;;;;;;;;;;26.83;57.60;100440.91;7315643;19;129251;-32
2022/08/10 00:11:32;;;;;;;;;;;;;;;26.85;57.75;100441.59;7313429;19;129220;-39
2022/08/10 00:13:57;;;;;;;;;;;;;;;26.86;57.20;100442.41;7315246;19;129803;-33
2022/08/10 00:16:22;;;;;;;;;;;;;;;26.87;57.97;100438.81;7315486;19;129022;-36
2022/08/10 00:18:48;;;;;;;;;;;;;;;26.78;57.31;100429.16;7314733;19;128898;-38
2022/08/10 00:21:13;;;;;;;;;;;;;;;26.86;57.16;100437.97;7313329;19;129622;-33
2022/08/10 00:23:38;;;;;;;;;;;;;;;26.85;57.33;100431.03;7314624;19;129802;-35
2022/08/10 00:26:04;;;;;;;;;;;;;;;26.19;52.61;100436.81;7315574;19;129292;-34
2022/08/10 00:28:30;;;;;;;;;;;;;;;25.97;51.79;100443.31;7315203;19;129441;-36
2022/08/10 00:30:55;;;;;;;;;;;;;;;26.41;56.65;100447.75;7313272;19;130210;-33
2022/08/10 00:33:21;;;;;;;;;;;;;;;26.57;57.72;100440.00;7314295;19;129114;-34
2022/08/10 00:35:46;;;;;;;;;;;;;;;26.68;57.03;100439.81;7314866;19;129731;-34
2022/08/10 00:38:11;;;;;;;;;;;;;;;26.75;57.50;100440.03;7315257;19;129027;-33
2022/08/10 00:40:37;;;;;;;;;;;;;;;26.79;57.48;100436.91;7311426;19;129505;-37
2022/08/10 00:43:02;;;;;;;;;;;;;;;26.80;57.29;100448.31;7314559;19;130123;-33
2022/08/10 00:45:27;;;;;;;;;;;;;;;26.79;56.82;100436.91;7314053;19;128862;-38
2022/08/10 00:47:54;;;;;;;;;;;;;;;26.81;57.24;100429.69;7315279;19;128775;-34
2022/08/10 00:50:20;;;;;;;;;;;;;;;26.84;57.03;100437.28;7312494;19;129392;-35
2022/08/10 00:52:46;;;;;;;;;;;;;;;26.83;57.56;100438.28;7314591;19;129225;-35
2022/08/10 00:55:11;;;;;;;;;;;;;;;26.77;57.22;100423.06;7314920;19;129780;-38
2022/08/10 00:57:37;;;;;;;;;;;;;;;26.86;57.66;100437.97;7314447;19;129706;-33
2022/08/10 01:00:03;;;;;;;;;;;;;;;26.84;57.32;100439.94;7311496;19;129646;-35
2022/08/10 01:02:30;;;;;;;;;;;;;;;26.82;57.07;100441.88;7312068;19;129777;-39
2022/08/10 01:04:56;;;;;;;;;;;;;;;26.83;57.81;100438.28;7314741;19;128830;-35
2022/08/10 01:07:22;;;;;;;;;;;;;;;26.78;57.12;100432.63;7315165;19;129503;-35
2022/08/10 01:10:05;;;;;;;;;;;;;;;26.83;57.16;100427.72;7312923;19;130175;-34
2022/08/10 01:12:40;;;;;;;;;;;;;;;26.74;54.91;100439.19;7314538;19;129649;-33
2022/08/10 01:15:24;;;;;;;;;;;;;;;25.97;51.59;100427.50;7313090;19;129520;-39
2022/08/10 01:18:00;;;;;;;;;;;;;;;26.31;56.82;100431.16;7313395;19;129549;-32
2022/08/10 01:20:33;;;;;;;;;;;;;;;26.56;56.96;100427.78;7311972;19;130367;-39
2022/08/10 01:23:13;;;;;;;;;;;;;;;26.69;57.36;100430.91;7314282;19;130406;-37
2022/08/10 01:25:44;;;;;;;;;;;;;;;26.76;57.06;100421.41;7314658;19;128849;-37
2022/08/10 01:28:12;;;;;;;;;;;;;;;26.79;57.04;100421.09;7312785;19;129274;-34
2022/08/10 01:30:38;;;;;;;;;;;;;;;26.79;57.05;100421.09;7311333;19;129431;-33
2022/08/10 01:33:08;;;;;;;;;;;;;;;26.82;57.74;100425.25;7312531;19;129492;-36
2022/08/10 01:35:42;;;;;;;;;;;;;;;26.82;57.36;100420.78;7313592;19;128820;-36
2022/08/10 01:38:15;;;;;;;;;;;;;;;26.82;57.46;100423.41;7312992;19;129066;-38
2022/08/10 01:40:43;;;;;;;;;;;;;;;26.85;57.64;100422.28;7310143;19;129523;-34
2022/08/10 01:43:09;;;;;;;;;;;;;;;26.77;57.45;100409.88;7312257;19;129336;-39
2022/08/10 01:45:37;;;;;;;;;;;;;;;26.86;57.44;100432.69;7312223;19;128799;-35
2022/08/10 01:50:51;;;;;;;;;;;;;;;26.84;57.67;100429.38;7312423;19;129071;-36
2022/08/10 01:53:20;;;;;;;;;;;;;;;26.85;57.33;100430.22;7313020;19;129271;-35
2022/08/10 01:55:46;;;;;;;;;;;;;;;26.83;57.26;100433.00;7311354;19;129352;-36
2022/08/10 01:58:14;;;;;;;;;;;;;;;26.85;57.54;100430.22;7311247;19;129398;-33
2022/08/10 02:00:41;;;;;;;;;;;;;;;26.43;53.36;100434.41;7311005;19;129457;-34
2022/08/10 02:03:08;;;;;;;;;;;;;;;26.03;51.51;100442.72;7311826;19;129591;-38
2022/08/10 02:05:36;;;;;;;;;;;;;;;26.31;56.54;100435.63;7311091;19;129374;-35
2022/08/10 02:08:02;;;;;;;;;;;;;;;26.54;57.08;100442.94;7310949;19;129124;-37
2022/08/10 02:10:28;;;;;;;;;;;;;;;26.68;57.69;100439.81;7310731;19;129250;-37
2022/08/10 02:12:56;;;;;;;;;;;;;;;26.76;57.22;100439.03;7314271;19;129902;-35
2022/08/10 02:15:22;;;;;;;;;;;;;;;26.80;57.27;100443.03;7318224;19;128839;-37
2022/08/10 02:17:52;;;;;;;;;;;;;;;26.82;57.17;100441.06;7318979;19;129070;-34
2022/08/10 02:20:19;;;;;;;;;;;;;;;26.80;57.28;100446.50;7315854;19;129933;-39
2022/08/10 02:22:47;;;;;;;;;;;;;;;26.83;56.94;100438.28;7317887;19;129159;-35
2022/08/10 02:25:14;;;;;;;;;;;;;;;26.85;57.23;100441.59;7318326;19;128991;-33
2022/08/10 02:27:39;;;;;;;;;;;;;;;26.85;56.83;100436.31;7318029;19;128841;-32
2022/08/10 02:30:06;;;;;;;;;;;;;;;26.86;57.68;100432.69;7316489;19;130109;-33
2022/08/10 02:32:32;;;;;;;;;;;;;;;26.85;57.48;100436.31;7318280;19;131953;-34
2022/08/10 02:34:59;;;;;;;;;;;;;;;26.86;57.13;100437.97;7317725;19;128916;-35
2022/08/10 02:37:26;;;;;;;;;;;;;;;26.87;57.29;100434.34;7317855;19;129231;-35
2022/08/10 02:39:52;;;;;;;;;;;;;;;26.88;57.64;100436.00;7316197;19;129654;-34
2022/08/10 02:42:22;;;;;;;;;;;;;;;26.84;57.14;100436.47;7318356;19;129339;-34
2022/08/10 02:44:57;;;;;;;;;;;;;;;25.97;51.83;100419.59;7317740;19;128888;-34
2022/08/10 02:47:32;;;;;;;;;;;;;;;26.21;56.48;100430.44;7317219;19;128832;-34
2022/08/10 02:50:15;;;;;;;;;;;;;;;26.53;57.41;100438.66;7315926;19;129348;-37
2022/08/10 02:52:43;;;;;;;;;;;;;;;26.68;56.80;100434.53;7317907;19;129767;-35
2022/08/10 02:55:31;;;;;;;;;;;;;;;26.74;57.24;100433.91;7318618;19;129395;-41
2022/08/10 02:57:57;;;;;;;;;;;;;;;26.70;57.11;100427.28;7318980;19;129353;-34
2022/08/10 03:00:24;;;;;;;;;;;;;;;26.73;57.04;100420.88;7315168;19;129278;-33
2022/08/10 03:02:51;;;;;;;;;;;;;;;26.82;56.95;100441.88;7316385;19;129845;-34
2022/08/10 03:05:18;;;;;;;;;;;;;;;26.82;57.55;100433.97;7317150;19;129306;-35
2022/08/10 03:07:51;;;;;;;;;;;;;;;26.84;56.93;100441.75;7317388;19;128852;-33
2022/08/10 03:10:35;;;;;;;;;;;;;;;26.86;57.83;100437.97;7315898;19;129330;-35
2022/08/10 03:13:03;;;;;;;;;;;;;;;26.85;56.89;100438.97;7317196;19;129778;-39
2022/08/10 03:15:29;;;;;;;;;;;;;;;26.85;57.74;100436.31;7317253;19;129447;-33
2022/08/10 03:17:55;;;;;;;;;;;;;;;26.77;56.91;100422.22;7316772;19;129061;-34
2022/08/10 03:20:22;;;;;;;;;;;;;;;26.87;57.44;100434.34;7314432;19;130676;-36
2022/08/10 03:22:51;;;;;;;;;;;;;;;26.87;57.10;100434.34;7317820;19;130213;-34
2022/08/10 03:25:18;;;;;;;;;;;;;;;26.86;57.19;100437.97;7314326;19;129077;-33
2022/08/10 03:27:44;;;;;;;;;;;;;;;26.87;57.73;100436.97;7316043;19;129031;-37
2022/08/10 03:30:10;;;;;;;;;;;;;;;26.86;57.42;100437.97;7313985;19;129134;-33
2022/08/10 03:32:35;;;;;;;;;;;;;;;26.20;52.01;100439.31;7316616;19;129253;-37
2022/08/10 03:35:01;;;;;;;;;;;;;;;25.98;51.75;100429.13;7316641;19;129454;-34
2022/08/10 03:37:26;;;;;;;;;;;;;;;26.42;56.69;100438.03;7315718;19;128937;-34
2022/08/10 03:39:53;;;;;;;;;;;;;;;26.62;57.52;100440.38;7314712;19;129044;-34
2022/08/10 03:42:19;;;;;;;;;;;;;;;26.69;57.37;100430.91;7316288;19;130377;-34
2022/08/10 03:44:44;;;;;;;;;;;;;;;26.75;57.52;100435.59;7315578;19;129415;-32
2022/08/10 03:47:11;;;;;;;;;;;;;;;26.79;56.87;100444.03;7315141;19;129006;-39
2022/08/10 03:49:37;;;;;;;;;;;;;;;26.80;57.29;100438.59;7314877;19;130863;-36
2022/08/10 03:52:05;;;;;;;;;;;;;;;26.81;57.66;100439.41;7313341;19;129632;-41
2022/08/10 03:54:30;;;;;;;;;;;;;;;26.81;57.13;100442.88;7314271;19;128968;-36
2022/08/10 03:56:56;;;;;;;;;;;;;;;26.83;57.22;100454.13;7315118;19;128976;-39
2022/08/10 03:59:21;;;;;;;;;;;;;;;26.86;57.04;100451.16;7315252;19;129006;-35
2022/08/10 04:01:49;;;;;;;;;;;;;;;26.86;57.00;100452.97;7312996;19;129665;-34
2022/08/10 04:04:14;;;;;;;;;;;;;;;26.85;57.37;100451.31;7315431;19;129036;-38
2022/08/10 04:06:40;;;;;;;;;;;;;;;26.85;57.54;100449.53;7315108;19;129270;-35
2022/08/10 04:09:05;;;;;;;;;;;;;;;26.79;57.69;100451.94;7315693;19;130251;-37
2022/08/10 04:11:30;;;;;;;;;;;;;;;26.87;57.21;100465.19;7313373;19;129107;-37
2022/08/10 04:13:56;;;;;;;;;;;;;;;26.87;57.19;100476.56;7315210;19;129202;-34
2022/08/10 04:16:21;;;;;;;;;;;;;;;26.85;57.19;100473.28;7314875;19;129170;-32
2022/08/10 04:18:46;;;;;;;;;;;;;;;26.85;57.19;100473.28;7315755;19;129766;-34
2022/08/10 04:21:17;;;;;;;;;;;;;;;26.23;52.32;100480.38;7312544;19;129673;-35
2022/08/10 04:23:44;;;;;;;;;;;;;;;26.01;51.84;100478.09;7315759;19;129612;-40
2022/08/10 04:26:10;;;;;;;;;;;;;;;26.44;56.97;100468.56;7313959;19;129414;-36
2022/08/10 04:28:36;;;;;;;;;;;;;;;26.63;56.74;100467.56;7314775;19;129317;-34
2022/08/10 04:31:03;;;;;;;;;;;;;;;26.72;57.54;100472.84;7313067;19;129310;-34
2022/08/10 04:33:30;;;;;;;;;;;;;;;26.78;57.25;100481.94;7314500;19;128910;-35
2022/08/10 04:35:55;;;;;;;;;;;;;;;26.84;57.32;100476.88;7311358;19;129566;-34
2022/08/10 04:38:21;;;;;;;;;;;;;;;26.83;57.50;100477.88;7313699;19;129330;-37
2022/08/10 04:40:47;;;;;;;;;;;;;;;26.85;57.14;100468.00;7311774;19;129519;-34
2022/08/10 04:43:12;;;;;;;;;;;;;;;26.86;57.00;100479.34;7314309;19;129038;-35
2022/08/10 04:45:38;;;;;;;;;;;;;;;26.84;56.78;100474.22;7313740;19;128769;-38
2022/08/10 04:48:03;;;;;;;;;;;;;;;26.85;57.25;100478.53;7314481;19;130159;-33
2022/08/10 04:50:29;;;;;;;;;;;;;;;26.84;57.22;100476.88;7312246;19;129136;-36
2022/08/10 04:52:54;;;;;;;;;;;;;;;26.85;56.86;100478.53;7313819;19;129409;-36
2022/08/10 04:55:19;;;;;;;;;;;;;;;26.87;57.28;100481.03;7313630;19;128840;-36
2022/08/10 04:57:44;;;;;;;;;;;;;;;26.85;57.51;100473.28;7314510;19;129739;-35
2022/08/10 05:00:10;;;;;;;;;;;;;;;26.85;57.07;100491.75;7311384;19;129416;-39
2022/08/10 05:02:35;;;;;;;;;;;;;;;26.86;57.78;100484.63;7313353;19;128912;-30
2022/08/10 05:05:00;;;;;;;;;;;;;;;26.86;57.90;100485.47;7313918;19;129061;-37
2022/08/10 05:07:26;;;;;;;;;;;;;;;26.87;57.26;100502.13;7314373;19;129152;-34
2022/08/10 05:09:53;;;;;;;;;;;;;;;26.21;53.02;100493.72;7311410;19;129415;-33
2022/08/10 05:12:18;;;;;;;;;;;;;;;26.01;51.64;100494.78;7313784;19;129485;-35
2022/08/10 05:14:43;;;;;;;;;;;;;;;26.42;57.10;100491.63;7313715;19;128825;-35
2022/08/10 05:17:09;;;;;;;;;;;;;;;26.61;56.88;100486.19;7313083;19;129689;-35
2022/08/10 05:19:34;;;;;;;;;;;;;;;26.70;56.71;100490.63;7311847;19;129157;-33
2022/08/10 05:21:59;;;;;;;;;;;;;;;26.77;56.90;100494.31;7313017;19;129437;-34
2022/08/10 05:24:24;;;;;;;;;;;;;;;26.80;57.04;100486.09;7313574;19;128893;-39
2022/08/10 05:26:50;;;;;;;;;;;;;;;26.78;57.11;100481.94;7313091;19;130170;-33
2022/08/10 05:29:15;;;;;;;;;;;;;;;26.81;57.41;100490.38;7311649;19;129294;-35
2022/08/10 05:31:40;;;;;;;;;;;;;;;26.71;56.57;100470.31;7310364;19;129169;-36
2022/08/10 05:34:05;;;;;;;;;;;;;;;26.82;57.40;100489.38;7313337;19;129107;-35
2022/08/10 05:36:31;;;;;;;;;;;;;;;26.82;57.18;100478.81;7312090;19;129321;-37
2022/08/10 05:38:57;;;;;;;;;;;;;;;26.83;56.92;100493.69;7312149;19;129112;-38
2022/08/10 05:41:24;;;;;;;;;;;;;;;26.83;57.22;100496.34;7310478;19;130338;-35
2022/08/10 05:43:50;;;;;;;;;;;;;;;26.85;57.33;100491.75;7313285;19;128832;-38
2022/08/10 05:46:15;;;;;;;;;;;;;;;26.83;57.58;100485.78;7312454;19;130190;-38
2022/08/10 05:48:41;;;;;;;;;;;;;;;26.85;57.04;100488.25;7316278;19;129799;-31
2022/08/10 05:51:06;;;;;;;;;;;;;;;26.85;58.03;100486.47;7317982;19;129008;-39
2022/08/10 05:53:33;;;;;;;;;;;;;;;26.84;57.62;100492.69;7319719;19;128895;-39
2022/08/10 05:55:58;;;;;;;;;;;;;;;26.84;57.26;100482.16;7318695;19;129126;-34
2022/08/10 05:58:24;;;;;;;;;;;;;;;26.25;52.31;100489.78;7317937;19;129162;-33
2022/08/10 06:00:53;;;;;;;;;;;;;;;25.99;52.02;100487.94;7318471;19;129043;-41
2022/08/10 06:03:20;;;;;;;;;;;;;;;26.32;56.90;100496.13;7320320;19;128948;-37
2022/08/10 06:05:45;;;;;;;;;;;;;;;26.56;57.23;100498.19;7318195;19;130913;-34
2022/08/10 06:08:18;;;;;;;;;;;;;;;26.59;57.24;100480.22;7318368;19;129394;-36
2022/08/10 06:10:44;;;;;;;;;;;;;;;26.73;57.07;100484.19;7317571;19;129225;-35
2022/08/10 06:15:55;;;;;;;;;;;;;;;26.80;57.12;100491.38;7319659;19;129290;-31
2022/08/10 06:18:21;;;;;;;;;;;;;;;26.76;57.38;100490.00;7317055;19;129653;-38
2022/08/10 06:20:48;;;;;;;;;;;;;;;26.79;57.22;100497.59;7316257;19;129112;-36
2022/08/10 06:23:13;;;;;;;;;;;;;;;26.81;57.12;100492.19;7319152;19;128974;-37
2022/08/10 06:25:39;;;;;;;;;;;;;;;26.74;57.42;100481.41;7318753;19;128993;-38
2022/08/10 06:28:05;;;;;;;;;;;;;;;26.83;57.36;100496.34;7317651;19;129392;-34
2022/08/10 06:30:32;;;;;;;;;;;;;;;26.84;57.37;100487.44;7317113;19;128907;-34
2022/08/10 06:32:59;;;;;;;;;;;;;;;26.83;57.46;100490.22;7318572;19;128836;-39
2022/08/10 06:35:26;;;;;;;;;;;;;;;26.83;57.75;100480.50;7318825;19;129650;-35
2022/08/10 06:37:52;;;;;;;;;;;;;;;26.84;57.41;100478.69;7318400;19;129640;-34
2022/08/10 06:40:18;;;;;;;;;;;;;;;26.85;57.09;100488.25;7316753;19;130731;-33
2022/08/10 06:42:47;;;;;;;;;;;;;;;26.74;57.27;100480.59;7318648;19;129312;-37
2022/08/10 06:45:15;;;;;;;;;;;;;;;26.83;57.10;100493.69;7317405;19;130913;-35
2022/08/10 06:47:43;;;;;;;;;;;;;;;26.05;52.12;100497.97;7317435;19;129260;-37
2022/08/10 06:50:14;;;;;;;;;;;;;;;26.19;56.21;100495.66;7315755;19;128809;-35
2022/08/10 06:52:41;;;;;;;;;;;;;;;26.51;57.54;100497.81;7317323;19;128861;-38
2022/08/10 06:55:08;;;;;;;;;;;;;;;26.64;57.18;100503.53;7317680;19;130415;-31
2022/08/10 06:57:36;;;;;;;;;;;;;;;26.68;57.19;100492.56;7317715;19;129157;-37
2022/08/10 07:00:02;;;;;;;;;;;;;;;26.78;57.35;100498.59;7313510;19;130153;-37
2022/08/10 07:02:43;;;;;;;;;;;;;;;26.80;56.87;100503.72;7317657;19;129043;-33
2022/08/10 07:05:13;;;;;;;;;;;;;;;26.82;57.40;100505.22;7317284;19;129631;-39
2022/08/10 07:07:39;;;;;;;;;;;;;;;26.81;57.84;100508.84;7318111;19;129525;-35
2022/08/10 07:10:06;;;;;;;;;;;;;;;26.83;57.71;100504.25;7315404;19;129132;-34
2022/08/10 07:12:33;;;;;;;;;;;;;;;26.84;57.29;100502.44;7316322;19;128848;-38
2022/08/10 07:14:59;;;;;;;;;;;;;;;26.84;57.19;100497.16;7316628;19;130155;-37
2022/08/10 07:17:26;;;;;;;;;;;;;;;26.83;57.24;100495.50;7317674;19;131696;-34
2022/08/10 07:19:54;;;;;;;;;;;;;;;26.83;57.49;100501.63;7315610;19;129513;-34
2022/08/10 07:22:21;;;;;;;;;;;;;;;26.83;57.44;100493.69;7316341;19;128859;-33
2022/08/10 07:24:47;;;;;;;;;;;;;;;26.85;57.88;100499.66;7316600;19;130383;-36
2022/08/10 07:27:13;;;;;;;;;;;;;;;26.84;57.44;100497.97;7317138;19;129466;-36
2022/08/10 07:29:42;;;;;;;;;;;;;;;26.84;57.34;100497.97;7315387;19;129423;-38
2022/08/10 07:32:08;;;;;;;;;;;;;;;26.83;57.30;100495.50;7317376;19;129573;-35
2022/08/10 07:34:34;;;;;;;;;;;;;;;26.84;57.64;100503.25;7316643;19;129591;-36
2022/08/10 07:37:02;;;;;;;;;;;;;;;26.08;52.34;100503.75;7317516;19;129124;-34
2022/08/10 07:39:29;;;;;;;;;;;;;;;26.05;56.35;100482.94;7316054;19;129191;-33
2022/08/10 07:41:55;;;;;;;;;;;;;;;26.48;56.85;100506.00;7313141;19;129458;-38
2022/08/10 07:44:21;;;;;;;;;;;;;;;26.61;57.19;100499.38;7315785;19;128955;-37
2022/08/10 07:46:51;;;;;;;;;;;;;;;26.71;56.89;100505.44;7316640;19;130307;-40
2022/08/10 07:49:18;;;;;;;;;;;;;;;26.75;57.07;100505.97;7315158;19;129170;-38
2022/08/10 07:51:43;;;;;;;;;;;;;;;26.76;56.99;100500.56;7313380;19;129243;-36
2022/08/10 07:54:14;;;;;;;;;;;;;;;26.78;56.81;100498.59;7315356;19;129648;-34
2022/08/10 07:56:40;;;;;;;;;;;;;;;26.80;57.43;100491.38;7316078;19;129289;-33
2022/08/10 07:59:08;;;;;;;;;;;;;;;26.81;57.08;100495.66;7316344;19;129325;-34
2022/08/10 08:01:35;;;;;;;;;;;;;;;26.81;57.00;100495.66;7313487;19;128991;-39
2022/08/10 08:04:01;;;;;;;;;;;;;;;26.83;57.34;100491.06;7315683;19;129093;-35
2022/08/10 08:06:29;;;;;;;;;;;;;;;26.83;57.64;100496.34;7315277;19;129644;-39
2022/08/10 08:08:57;;;;;;;;;;;;;;;26.83;57.03;100496.34;7315206;19;128867;-33
2022/08/10 08:11:23;;;;;;;;;;;;;;;26.72;57.31;100472.84;7312110;19;128941;-35
2022/08/10 08:13:49;;;;;;;;;;;;;;;26.81;56.94;100486.91;7314695;19;129687;-35
2022/08/10 08:16:14;;;;;;;;;;;;;;;26.80;57.30;100488.72;7315329;19;129163;-36
2022/08/10 08:18:41;;;;;;;;;;;;;;;26.82;57.52;100485.94;7315472;19;129190;-35
2022/08/10 08:21:06;;;;;;;;;;;;;;;26.82;57.61;100494.66;7312266;19;128798;-36
2022/08/10 08:23:33;;;;;;;;;;;;;;;26.82;57.39;100488.56;7314473;19;129731;-35
2022/08/10 08:25:58;;;;;;;;;;;;;;;26.03;52.09;100487.53;7314725;19;129120;-39
2022/08/10 08:28:25;;;;;;;;;;;;;;;26.08;55.11;100487.94;7314430;19;129233;-37
2022/08/10 08:30:51;;;;;;;;;;;;;;;26.43;56.90;100490.63;7312889;19;129006;-34
2022/08/10 08:33:17;;;;;;;;;;;;;;;26.59;57.35;100492.63;7315196;19;129367;-33
2022/08/10 08:35:43;;;;;;;;;;;;;;;26.60;57.08;100471.34;7314422;19;129453;-37
2022/08/10 08:38:10;;;;;;;;;;;;;;;26.73;57.32;100489.47;7314358;19;129153;-35
2022/08/10 08:40:36;;;;;;;;;;;;;;;26.78;56.79;100487.19;7313459;19;129417;-34
2022/08/10 08:43:20;;;;;;;;;;;;;;;26.79;57.07;100489.69;7314828;19;130471;-36
2022/08/10 08:45:54;;;;;;;;;;;;;;;26.81;56.92;100490.38;7314157;19;129406;-35
2022/08/10 08:48:44;;;;;;;;;;;;;;;26.82;57.59;100478.81;7313952;19;128751;-35
2022/08/10 08:51:17;;;;;;;;;;;;;;;26.79;57.52;100484.41;7313180;19;129529;-32
2022/08/10 08:54:01;;;;;;;;;;;;;;;26.72;57.63;100464.91;7314987;19;129450;-39
2022/08/10 08:56:27;;;;;;;;;;;;;;;26.73;57.48;100461.28;7314650;19;130341;-38
2022/08/10 08:58:58;;;;;;;;;;;;;;;26.82;57.30;100478.81;7313066;19;128820;-35
2022/08/10 09:01:29;;;;;;;;;;;;;;;26.80;57.43;100474.69;7312111;19;129382;-34
2022/08/10 09:04:08;;;;;;;;;;;;;;;26.79;57.60;100473.06;7313650;19;129181;-33
2022/08/10 09:06:52;;;;;;;;;;;;;;;26.80;57.74;100472.06;7314726;19;130596;-35
2022/08/10 09:09:33;;;;;;;;;;;;;;;26.78;57.65;100466.94;7314175;19;129032;-36
2022/08/10 09:12:16;;;;;;;;;;;;;;;26.64;54.63;100469.25;7314988;19;129491;-37
2022/08/10 09:14:44;;;;;;;;;;;;;;;26.01;52.37;100468.44;7314190;19;130174;-37
2022/08/10 09:17:12;;;;;;;;;;;;;;;26.24;56.56;100467.03;7313142;19;129183;-37
2022/08/10 09:19:42;;;;;;;;;;;;;;;26.49;57.16;100460.19;7312588;19;128835;-39
2022/08/10 09:22:28;;;;;;;;;;;;;;;26.62;56.81;100466.78;7309958;19;128857;-37
2022/08/10 09:24:59;;;;;;;;;;;;;;;26.70;57.18;100461.59;7313526;19;129433;-34
2022/08/10 09:27:44;;;;;;;;;;;;;;;26.73;56.94;100461.28;7312934;19;129490;-36
2022/08/10 09:30:11;;;;;;;;;;;;;;;26.76;57.14;100463.59;7312552;19;129375;-33
2022/08/10 09:33:00;;;;;;;;;;;;;;;26.77;56.81;100460.00;7312972;19;129467;-35
2022/08/10 09:35:30;;;;;;;;;;;;;;;26.73;57.70;100445.44;7311820;19;129584;-33
2022/08/10 09:37:58;;;;;;;;;;;;;;;26.78;57.47;100451.09;7312555;19;130244;-36
2022/08/10 09:40:23;;;;;;;;;;;;;;;26.79;57.57;100458.03;7311250;19;129501;-30
2022/08/10 09:43:07;;;;;;;;;;;;;;;26.70;57.43;100437.84;7313363;19;129433;-36
2022/08/10 09:45:51;;;;;;;;;;;;;;;26.78;57.37;100455.53;7313528;19;129714;-34
2022/08/10 09:48:16;;;;;;;;;;;;;;;26.76;57.48;100447.78;7312685;19;129836;-40
2022/08/10 09:51:02;;;;;;;;;;;;;;;26.68;58.07;100434.53;7310555;19;129264;-35
2022/08/10 09:53:36;;;;;;;;;;;;;;;26.78;57.85;100445.00;7312515;19;129359;-33
2022/08/10 09:56:14;;;;;;;;;;;;;;;26.77;57.77;100454.72;7311140;19;129737;-34
2022/08/10 09:58:45;;;;;;;;;;;;;;;26.76;57.67;100447.78;7311610;19;129663;-34
2022/08/10 10:01:17;;;;;;;;;;;;;;;26.41;53.94;100447.75;7309049;19;128802;-36
2022/08/10 10:03:58;;;;;;;;;;;;;;;25.98;52.49;100439.69;7312135;19;129155;-38
2022/08/10 10:06:44;;;;;;;;;;;;;;;26.23;57.43;100439.00;7312997;19;129954;-37
2022/08/10 10:09:19;;;;;;;;;;;;;;;26.51;57.13;100445.88;7312037;19;130361;-35
2022/08/10 10:11:44;;;;;;;;;;;;;;;26.60;57.20;100442.34;7309853;19;129458;-31
2022/08/10 10:14:29;;;;;;;;;;;;;;;26.68;57.48;100439.81;7312575;19;129420;-36
2022/08/10 10:17:06;;;;;;;;;;;;;;;26.74;57.30;100444.47;7311078;19;129248;-35
2022/08/10 10:19:31;;;;;;;;;;;;;;;26.74;57.04;100431.25;7309951;19;129448;-35
2022/08/10 10:22:00;;;;;;;;;;;;;;;26.75;56.78;100434.75;7309529;19;129335;-40
2022/08/10 10:24:25;;;;;;;;;;;;;;;26.75;57.75;100435.59;7312165;19;129376;-38
2022/08/10 10:26:54;;;;;;;;;;;;;;;26.76;57.30;100425.84;7310589;19;131351;-35
2022/08/10 10:29:20;;;;;;;;;;;;;;;26.78;57.01;100434.44;7310163;19;129506;-38
2022/08/10 10:31:57;;;;;;;;;;;;;;;26.74;56.96;100423.34;7308969;19;129304;-33
2022/08/10 10:34:39;;;;;;;;;;;;;;;26.73;58.01;100426.16;7315818;19;130074;-35
2022/08/10 10:37:05;;;;;;;;;;;;;;;26.72;57.49;100420.06;7318676;19;129890;-33
2022/08/10 10:39:32;;;;;;;;;;;;;;;26.72;57.11;100425.34;7317168;19;129524;-34
2022/08/10 10:42:00;;;;;;;;;;;;;;;26.71;57.88;100418.38;7315189;19;129100;-31
2022/08/10 10:44:25;;;;;;;;;;;;;;;26.71;57.50;100422.81;7311123;19;129093;-35
2022/08/10 10:46:50;;;;;;;;;;;;;;;26.70;57.73;100424.66;7317939;19;129895;-34
2022/08/10 10:49:25;;;;;;;;;;;;;;;26.22;52.90;100421.53;7316825;19;130384;-33
2022/08/10 10:52:01;;;;;;;;;;;;;;;25.92;52.50;100426.25;7314425;19;130236;-40
2022/08/10 10:54:31;;;;;;;;;;;;;;;26.24;56.73;100419.59;7316719;19;129039;-34
2022/08/10 10:57:08;;;;;;;;;;;;;;;26.48;57.92;100417.16;7316952;19;129540;-36
2022/08/10 10:59:52;;;;;;;;;;;;;;;26.59;57.50;100416.94;7316386;19;129205;-35
2022/08/10 11:02:40;;;;;;;;;;;;;;;26.65;56.93;100419.00;7315868;19;129026;-33
2022/08/10 11:05:24;;;;;;;;;;;;;;;26.69;57.83;100420.34;7315121;19;129040;-34
2022/08/10 11:08:01;;;;;;;;;;;;;;;26.69;56.99;100417.69;7317356;19;130381;-38
2022/08/10 11:10:30;;;;;;;;;;;;;;;26.70;57.46;100416.75;7316828;19;129287;-38
2022/08/10 11:13:11;;;;;;;;;;;;;;;26.70;57.67;100405.34;7317514;19;129057;-33
2022/08/10 11:15:37;;;;;;;;;;;;;;;26.71;57.71;100399.09;7317177;19;128933;-39
2022/08/10 11:18:02;;;;;;;;;;;;;;;26.72;57.50;100398.97;7313461;19;129071;-39
2022/08/10 11:20:37;;;;;;;;;;;;;;;26.69;57.43;100395.78;7311022;19;130401;-35
2022/08/10 11:23:08;;;;;;;;;;;;;;;26.73;57.69;100394.50;7317451;19;128626;-34
2022/08/10 11:25:56;;;;;;;;;;;;;;;26.76;57.36;100388.91;7316218;19;128844;-34
2022/08/10 11:28:33;;;;;;;;;;;;;;;26.75;57.44;100377.53;7314927;19;130037;-37
2022/08/10 11:31:17;;;;;;;;;;;;;;;26.73;57.31;100384.78;7314449;19;130465;-32
2022/08/10 11:33:47;;;;;;;;;;;;;;;26.77;57.43;100386.13;7315309;19;128849;-33
2022/08/10 11:36:24;;;;;;;;;;;;;;;26.77;57.65;100394.06;7316042;19;129028;-35
2022/08/10 11:38:52;;;;;;;;;;;;;;;26.06;51.84;100386.28;7316379;19;129542;-39
2022/08/10 11:41:17;;;;;;;;;;;;;;;26.06;55.33;100384.47;7314391;19;129222;-33
2022/08/10 11:43:47;;;;;;;;;;;;;;;26.39;56.75;100381.19;7315531;19;129579;-36
2022/08/10 11:46:33;;;;;;;;;;;;;;;26.55;57.56;100383.94;7314296;19;129488;-35
2022/08/10 11:49:02;;;;;;;;;;;;;;;26.61;57.22;100385.97;7314760;19;131322;-33
2022/08/10 11:51:44;;;;;;;;;;;;;;;26.67;57.39;100382.75;7313772;19;130382;-39
2022/08/10 11:54:29;;;;;;;;;;;;;;;26.63;57.45;100362.06;7314636;19;128959;-37
2022/08/10 11:56:56;;;;;;;;;;;;;;;26.72;56.97;100367.28;7315439;19;129164;-36
2022/08/10 12:02:09;;;;;;;;;;;;;;;26.72;57.23;100372.56;7314433;19;129111;-33
2022/08/10 12:04:35;;;;;;;;;;;;;;;26.71;57.50;100370.91;7314779;19;128851;-37
2022/08/10 12:07:04;;;;;;;;;;;;;;;26.73;57.57;100373.38;7315104;19;128864;-34
2022/08/10 12:09:30;;;;;;;;;;;;;;;26.73;57.63;100374.22;7314603;19;129532;-32
2022/08/10 12:11:57;;;;;;;;;;;;;;;26.75;58.08;100376.69;7313948;19;129701;-36
2022/08/10 12:14:29;;;;;;;;;;;;;;;26.73;57.69;100365.47;7316202;19;129277;-35
2022/08/10 12:17:03;;;;;;;;;;;;;;;26.76;57.39;100371.25;7315391;19;129423;-38
2022/08/10 12:19:48;;;;;;;;;;;;;;;26.64;57.54;100348.72;7315170;19;129036;-38
2022/08/10 12:22:18;;;;;;;;;;;;;;;26.66;57.78;100348.59;7312867;19;129696;-37
2022/08/10 12:24:48;;;;;;;;;;;;;;;26.74;57.56;100356.59;7316417;19;129099;-37
2022/08/10 12:27:13;;;;;;;;;;;;;;;26.04;52.66;100360.06;7315151;19;129203;-34
2022/08/10 12:29:38;;;;;;;;;;;;;;;25.93;52.53;100356.81;7313833;19;129959;-34
2022/08/10 12:32:12;;;;;;;;;;;;;;;26.34;57.18;100348.31;7314451;19;129608;-33
2022/08/10 12:34:43;;;;;;;;;;;;;;;26.52;57.33;100354.41;7313996;19;129254;-37
2022/08/10 12:37:27;;;;;;;;;;;;;;;26.62;57.51;100347.22;7316057;19;129480;-35
2022/08/10 12:40:12;;;;;;;;;;;;;;;26.65;57.76;100350.41;7314417;19;129547;-35
2022/08/10 12:42:44;;;;;;;;;;;;;;;26.70;57.23;100353.44;7313031;19;130611;-37
2022/08/10 12:45:15;;;;;;;;;;;;;;;26.71;57.72;100347.16;7315262;19;129908;-35
2022/08/10 12:47:56;;;;;;;;;;;;;;;26.72;57.70;100338.28;7314350;19;129855;-34